createdAt,value
2022-12-03T00:00:36.318Z,26.48
2022-12-03T00:01:38.057Z,37.35
2022-12-03T00:02:41.859Z,31.92
2022-12-03T00:03:44.769Z,31.30
2022-12-03T00:04:46.783Z,43.40
2022-12-03T00:05:49.384Z,37.13
2022-12-03T00:06:51.221Z,32.13
2022-12-03T00:07:53.736Z,34.70
2022-12-03T00:08:56.448Z,27.35
2022-12-03T00:09:59.416Z,35.42
2022-12-03T00:11:02.935Z,31.15
2022-12-03T00:12:04.975Z,28.58
2022-12-03T00:13:06.690Z,33.03
2022-12-03T00:14:08.524Z,30.92
2022-12-03T00:15:11.622Z,45.58
2022-12-03T00:16:13.523Z,34.03
2022-12-03T00:17:17.580Z,32.38
2022-12-03T00:18:19.413Z,34.15
2022-12-03T00:19:22.568Z,30.73
2022-12-03T00:20:28.310Z,34.42
2022-12-03T00:21:31.319Z,27.95
2022-12-03T00:22:33.316Z,30.10
2022-12-03T00:23:41.540Z,35.08
2022-12-03T00:24:45.730Z,49.17
2022-12-03T00:25:47.405Z,55.17
2022-12-03T00:26:48.966Z,40.78
2022-12-03T00:27:51.909Z,64.95
2022-12-03T00:28:54.950Z,68.72
2022-12-03T00:29:56.999Z,48.78
2022-12-03T00:30:59.193Z,50.90
2022-12-03T00:32:01.885Z,101.97
2022-12-03T00:33:04.608Z,54.28
2022-12-03T00:34:06.548Z,84.65
2022-12-03T00:35:09.387Z,86.68
2022-12-03T00:36:11.612Z,82.90
2022-12-03T00:37:13.527Z,69.88
2022-12-03T00:38:16.001Z,154.73
2022-12-03T00:39:18.803Z,92.13
2022-12-03T00:40:20.496Z,75.85
2022-12-03T00:41:23.380Z,329.30
2022-12-03T00:42:25.276Z,474.63
2022-12-03T00:43:27.092Z,336.27
2022-12-03T00:44:30.806Z,346.52
2022-12-03T00:45:34.893Z,97.53
2022-12-03T00:46:37.217Z,185.65
2022-12-03T00:47:38.883Z,279.13
2022-12-03T00:48:41.411Z,87.53
2022-12-03T00:49:43.831Z,85.57
2022-12-03T00:50:47.113Z,261.25
2022-12-03T00:51:48.879Z,106.78
2022-12-03T00:52:51.065Z,268.50
2022-12-03T00:53:53.143Z,276.77
2022-12-03T00:54:57.334Z,239.25
2022-12-03T00:55:59.193Z,229.48
2022-12-03T00:57:01.181Z,326.35
2022-12-03T00:58:03.020Z,61.50
2022-12-03T00:59:06.929Z,79.57
2022-12-03T01:00:11.943Z,140.80
2022-12-03T01:01:14.082Z,32.00
2022-12-03T01:02:16.141Z,154.55
2022-12-03T01:03:19.278Z,78.10
2022-12-03T01:04:21.352Z,75.78
2022-12-03T01:05:24.007Z,179.82
2022-12-03T01:06:25.657Z,155.40
2022-12-03T01:07:27.696Z,196.80
2022-12-03T01:08:30.630Z,113.03
2022-12-03T01:09:32.370Z,242.73
2022-12-03T01:10:35.286Z,171.45
2022-12-03T01:11:42.663Z,223.70
2022-12-03T01:12:46.881Z,163.25
2022-12-03T01:13:48.727Z,114.85
2022-12-03T01:14:50.612Z,201.23
2022-12-03T01:15:53.832Z,161.98
2022-12-03T01:16:56.600Z,73.97
2022-12-03T01:17:58.565Z,121.05
2022-12-03T01:19:02.321Z,124.35
2022-12-03T01:20:09.053Z,439.13
2022-12-03T01:21:11.060Z,401.33
2022-12-03T01:22:13.146Z,169.43
2022-12-03T01:23:16.506Z,257.75
2022-12-03T01:24:19.472Z,333.95
2022-12-03T01:25:22.417Z,179.57
2022-12-03T01:26:25.633Z,66.65
2022-12-03T01:27:27.632Z,236.80
2022-12-03T01:28:30.694Z,179.77
2022-12-03T01:29:32.442Z,78.43
2022-12-03T01:30:54.268Z,219.80
2022-12-03T01:32:15.472Z,465.15
2022-12-03T01:33:17.387Z,120.20
2022-12-03T01:34:19.213Z,255.27
2022-12-03T01:35:21.674Z,189.88
2022-12-03T01:36:26.133Z,280.55
2022-12-03T01:37:28.702Z,560.25
2022-12-03T01:38:30.512Z,409.92
2022-12-03T01:39:33.073Z,138.45
2022-12-03T01:40:36.285Z,101.57
2022-12-03T01:41:41.391Z,39.25
2022-12-03T01:42:44.879Z,84.80
2022-12-03T01:43:47.155Z,237.15
2022-12-03T01:44:53.225Z,258.15
2022-12-03T01:45:57.380Z,224.70
2022-12-03T01:47:05.989Z,228.07
2022-12-03T01:48:14.282Z,509.65
2022-12-03T01:49:24.281Z,235.18
2022-12-03T01:50:36.124Z,61.03
2022-12-03T01:51:37.907Z,357.65
2022-12-03T01:52:40.784Z,320.63
2022-12-03T01:53:44.282Z,66.32
2022-12-03T01:54:52.088Z,51.65
2022-12-03T01:55:54.577Z,214.52
2022-12-03T01:56:56.605Z,670.22
2022-12-03T01:58:01.901Z,452.30
2022-12-03T01:59:03.640Z,155.40
2022-12-03T02:00:11.645Z,294.90
2022-12-03T02:01:18.061Z,48.70
2022-12-03T02:02:24.292Z,71.35
2022-12-03T02:03:28.661Z,267.20
2022-12-03T02:04:31.890Z,55.58
2022-12-03T02:05:35.146Z,50.92
2022-12-03T02:06:39.886Z,132.07
2022-12-03T02:07:41.527Z,184.18
2022-12-03T02:08:45.440Z,400.27
2022-12-03T02:09:48.873Z,336.65
2022-12-03T02:10:52.059Z,469.63
2022-12-03T02:11:55.520Z,308.25
2022-12-03T02:13:03.209Z,265.25
2022-12-03T02:14:12.271Z,453.10
2022-12-03T02:15:14.632Z,481.67
2022-12-03T02:16:17.207Z,537.45
2022-12-03T02:17:21.349Z,503.60
2022-12-03T02:18:24.544Z,388.75
2022-12-03T02:19:30.364Z,244.98
2022-12-03T02:20:38.351Z,471.65
2022-12-03T02:22:02.191Z,361.17
2022-12-03T02:23:41.863Z,564.83
2022-12-03T02:25:07.946Z,414.50
2022-12-03T02:26:12.112Z,287.17
2022-12-03T02:27:16.826Z,259.90
2022-12-03T02:28:19.032Z,526.78
2022-12-03T02:29:20.991Z,585.97
2022-12-03T02:30:25.727Z,601.17
2022-12-03T02:31:27.600Z,370.73
2022-12-03T02:32:29.332Z,359.30
2022-12-03T02:33:31.852Z,256.45
2022-12-03T02:34:45.431Z,339.42
2022-12-03T02:35:47.692Z,334.25
2022-12-03T02:36:52.171Z,528.33
2022-12-03T02:38:02.823Z,314.00
2022-12-03T02:39:05.618Z,148.77
2022-12-03T02:40:12.799Z,240.77
2022-12-03T02:41:37.718Z,163.95
2022-12-03T02:42:40.655Z,280.17
2022-12-03T02:43:42.383Z,67.78
2022-12-03T02:44:44.231Z,151.48
2022-12-03T02:45:53.278Z,482.23
2022-12-03T02:46:55.694Z,342.38
2022-12-03T02:48:27.037Z,295.27
2022-12-03T02:49:29.732Z,234.00
2022-12-03T02:50:38.086Z,317.27
2022-12-03T02:51:42.968Z,242.23
2022-12-03T02:52:46.814Z,230.80
2022-12-03T02:53:52.342Z,267.73
2022-12-03T02:54:55.622Z,249.20
2022-12-03T02:56:00.808Z,157.73
2022-12-03T02:57:03.551Z,140.68
2022-12-03T02:58:06.183Z,124.22
2022-12-03T02:59:08.501Z,56.67
2022-12-03T03:00:11.797Z,403.52
2022-12-03T03:01:15.508Z,271.48
2022-12-03T03:02:18.229Z,309.70
2022-12-03T03:03:21.152Z,108.57
2022-12-03T03:04:25.165Z,271.40
2022-12-03T03:05:27.246Z,407.52
2022-12-03T03:06:29.622Z,245.23
2022-12-03T03:07:31.552Z,384.60
2022-12-03T03:08:36.196Z,517.20
2022-12-03T03:09:47.742Z,258.38
2022-12-03T03:10:50.243Z,357.25
2022-12-03T03:11:52.084Z,296.67
2022-12-03T03:12:55.609Z,208.20
2022-12-03T03:13:58.658Z,123.07
2022-12-03T03:15:01.174Z,57.47
2022-12-03T03:16:05.799Z,258.08
2022-12-03T03:17:08.372Z,120.95
2022-12-03T03:18:12.924Z,63.42
2022-12-03T03:19:16.957Z,85.25
2022-12-03T03:20:19.858Z,168.48
2022-12-03T03:21:22.270Z,383.52
2022-12-03T03:22:35.943Z,105.20
2022-12-03T03:23:37.636Z,249.40
2022-12-03T03:24:40.540Z,213.27
2022-12-03T03:25:45.971Z,262.13
2022-12-03T03:26:48.534Z,148.10
2022-12-03T03:27:51.706Z,202.23
2022-12-03T03:28:53.869Z,141.27
2022-12-03T03:29:58.785Z,20.67
2022-12-03T03:31:02.951Z,419.75
2022-12-03T03:32:05.732Z,161.15
2022-12-03T03:33:08.497Z,104.85
2022-12-03T03:34:10.931Z,45.85
2022-12-03T03:35:14.828Z,250.32
2022-12-03T03:36:19.851Z,236.27
2022-12-03T03:37:22.204Z,241.25
2022-12-03T03:38:24.522Z,141.75
2022-12-03T03:39:28.358Z,123.15
2022-12-03T03:40:32.682Z,119.30
2022-12-03T03:41:35.225Z,119.85
2022-12-03T03:42:38.424Z,205.65
2022-12-03T03:43:43.289Z,107.35
2022-12-03T03:44:46.929Z,296.75
2022-12-03T03:45:51.313Z,145.50
2022-12-03T03:46:53.609Z,289.60
2022-12-03T03:47:57.861Z,312.85
2022-12-03T03:48:59.735Z,166.35
2022-12-03T03:50:03.028Z,283.88
2022-12-03T03:51:09.705Z,419.90
2022-12-03T03:52:12.151Z,244.90
2022-12-03T03:53:16.141Z,194.57
2022-12-03T03:54:18.543Z,221.63
2022-12-03T03:55:20.871Z,195.70
2022-12-03T03:56:22.667Z,48.22
2022-12-03T03:57:24.348Z,158.57
2022-12-03T03:58:26.461Z,356.02
2022-12-03T03:59:29.518Z,101.05
2022-12-03T04:00:32.838Z,106.35
2022-12-03T04:01:34.859Z,48.33
2022-12-03T04:02:38.193Z,31.08
2022-12-03T04:03:42.499Z,33.15
2022-12-03T04:04:44.524Z,29.08
2022-12-03T04:05:48.602Z,31.67
2022-12-03T04:06:50.608Z,27.27
2022-12-03T04:07:52.385Z,65.70
2022-12-03T04:08:55.574Z,97.55
2022-12-03T04:09:57.494Z,61.53
2022-12-03T04:11:17.793Z,70.60
2022-12-03T04:12:38.353Z,62.00
2022-12-03T04:13:41.450Z,38.22
2022-12-03T04:14:43.329Z,40.63
2022-12-03T04:15:45.217Z,56.20
2022-12-03T04:16:48.120Z,59.05
2022-12-03T04:18:11.629Z,46.80
2022-12-03T04:19:13.971Z,55.25
2022-12-03T04:20:16.168Z,75.88
2022-12-03T04:21:41.113Z,37.67
2022-12-03T04:22:43.295Z,74.18
2022-12-03T04:23:45.424Z,84.30
2022-12-03T04:24:47.320Z,39.95
2022-12-03T04:26:07.978Z,84.97
2022-12-03T04:27:28.774Z,247.23
2022-12-03T04:28:49.819Z,54.47
2022-12-03T04:29:51.854Z,30.08
2022-12-03T04:30:53.864Z,38.75
2022-12-03T04:32:16.575Z,28.08
2022-12-03T04:33:37.093Z,32.60
2022-12-03T04:34:57.855Z,35.53
2022-12-03T04:35:59.445Z,33.40
2022-12-03T04:37:02.775Z,41.97
2022-12-03T04:38:05.029Z,39.38
2022-12-03T04:39:07.007Z,30.63
2022-12-03T04:40:31.583Z,38.35
2022-12-03T04:41:35.257Z,38.45
2022-12-03T04:42:37.325Z,30.77
2022-12-03T04:43:59.578Z,27.38
2022-12-03T04:45:02.555Z,33.40
2022-12-03T04:46:04.669Z,36.17
2022-12-03T04:47:18.818Z,29.95
2022-12-03T04:48:25.239Z,31.55
2022-12-03T04:49:27.029Z,31.65
2022-12-03T04:50:28.740Z,32.72
2022-12-03T04:51:30.970Z,36.30
2022-12-03T04:52:32.542Z,46.78
2022-12-03T04:53:36.217Z,49.58
2022-12-03T04:54:39.605Z,49.30
2022-12-03T04:55:41.291Z,90.13
2022-12-03T04:56:43.687Z,185.93
2022-12-03T04:57:45.446Z,219.77
2022-12-03T04:58:47.205Z,165.73
2022-12-03T04:59:48.874Z,67.65
2022-12-03T05:00:52.345Z,97.90
2022-12-03T05:01:54.460Z,112.70
2022-12-03T05:02:57.313Z,51.92
2022-12-03T05:04:02.043Z,297.38
2022-12-03T05:05:03.998Z,141.50
2022-12-03T05:06:08.748Z,85.28
2022-12-03T05:07:10.592Z,165.77
2022-12-03T05:08:12.236Z,149.30
2022-12-03T05:09:14.692Z,290.98
2022-12-03T05:10:18.290Z,217.40
2022-12-03T05:11:21.886Z,250.85
2022-12-03T05:12:23.652Z,123.10
2022-12-03T05:13:25.641Z,241.52
2022-12-03T05:14:29.687Z,38.50
2022-12-03T05:15:31.456Z,99.07
2022-12-03T05:16:33.802Z,133.00
2022-12-03T05:17:36.553Z,48.13
2022-12-03T05:18:38.435Z,164.55
2022-12-03T05:19:59.541Z,215.32
2022-12-03T05:21:04.832Z,157.23
2022-12-03T05:22:07.616Z,266.42
2022-12-03T05:23:25.049Z,251.90
2022-12-03T05:24:26.742Z,229.80
2022-12-03T05:27:00.490Z,180.40
2022-12-03T05:28:02.629Z,106.93
2022-12-03T05:29:04.600Z,121.10
2022-12-03T05:30:07.346Z,67.72
2022-12-03T05:31:09.626Z,57.42
2022-12-03T05:32:11.556Z,110.38
2022-12-03T05:33:15.148Z,127.28
2022-12-03T05:34:17.204Z,77.72
2022-12-03T05:35:19.194Z,73.97
2022-12-03T05:36:20.982Z,72.25
2022-12-03T05:37:23.140Z,98.55
2022-12-03T05:38:25.262Z,131.75
2022-12-03T05:39:26.953Z,238.15
2022-12-03T05:40:29.183Z,563.75
2022-12-03T05:41:53.140Z,312.23
2022-12-03T05:42:55.298Z,198.05
2022-12-03T05:43:57.842Z,148.68
2022-12-03T05:45:01.451Z,262.10
2022-12-03T05:46:05.241Z,337.00
2022-12-03T05:47:08.593Z,207.20
2022-12-03T05:48:20.888Z,186.45
2022-12-03T05:49:22.778Z,239.90
2022-12-03T05:50:27.571Z,286.75
2022-12-03T05:51:29.456Z,69.80
2022-12-03T05:52:31.867Z,325.77
2022-12-03T05:53:33.936Z,163.40
2022-12-03T05:54:35.821Z,217.23
2022-12-03T05:55:39.121Z,213.88
2022-12-03T05:56:44.063Z,147.98
2022-12-03T05:57:46.880Z,95.60
2022-12-03T05:58:48.542Z,186.75
2022-12-03T05:59:50.785Z,241.15
2022-12-03T06:00:53.382Z,101.97
2022-12-03T06:01:55.409Z,207.13
2022-12-03T06:02:58.293Z,248.23
2022-12-03T06:04:00.422Z,47.78
2022-12-03T06:05:02.412Z,146.80
2022-12-03T06:06:07.183Z,312.45
2022-12-03T06:07:13.999Z,291.40
2022-12-03T06:08:16.431Z,221.95
2022-12-03T06:09:18.308Z,266.33
2022-12-03T06:10:23.958Z,135.93
2022-12-03T06:11:26.040Z,251.88
2022-12-03T06:12:28.100Z,305.05
2022-12-03T06:13:29.731Z,135.13
2022-12-03T06:14:32.259Z,176.23
2022-12-03T06:15:36.371Z,298.67
2022-12-03T06:16:45.577Z,140.35
2022-12-03T06:17:47.825Z,233.95
2022-12-03T06:18:51.136Z,177.98
2022-12-03T06:19:53.949Z,244.07
2022-12-03T06:20:57.280Z,95.70
2022-12-03T06:21:59.397Z,52.40
2022-12-03T06:23:02.011Z,46.67
2022-12-03T06:24:04.075Z,42.78
2022-12-03T06:25:11.890Z,48.67
2022-12-03T06:26:14.588Z,47.20
2022-12-03T06:27:20.794Z,54.78
2022-12-03T06:28:22.568Z,139.38
2022-12-03T06:29:25.406Z,58.17
2022-12-03T06:30:27.151Z,55.38
2022-12-03T06:31:29.432Z,62.33
2022-12-03T06:32:31.260Z,76.05
2022-12-03T06:33:33.546Z,71.45
2022-12-03T06:34:35.215Z,69.20
2022-12-03T06:35:38.881Z,69.90
2022-12-03T06:36:41.318Z,66.78
2022-12-03T06:37:43.053Z,66.13
2022-12-03T06:38:45.012Z,155.38
2022-12-03T06:39:47.473Z,116.55
2022-12-03T06:40:49.679Z,116.88
2022-12-03T06:41:51.748Z,214.82
2022-12-03T06:42:54.499Z,60.08
2022-12-03T06:44:02.325Z,81.03
2022-12-03T06:45:06.005Z,104.47
2022-12-03T06:46:08.134Z,63.10
2022-12-03T06:47:10.400Z,83.47
2022-12-03T06:48:12.177Z,121.13
2022-12-03T06:49:14.141Z,188.25
2022-12-03T06:50:16.608Z,240.75
2022-12-03T06:51:18.287Z,214.60
2022-12-03T06:52:20.820Z,170.63
2022-12-03T06:53:22.728Z,80.80
2022-12-03T06:54:24.460Z,157.30
2022-12-03T06:55:27.283Z,143.43
2022-12-03T06:56:36.819Z,56.80
2022-12-03T06:57:41.315Z,65.18
2022-12-03T06:58:43.096Z,67.38
2022-12-03T06:59:45.355Z,60.40
2022-12-03T07:00:48.606Z,71.47
2022-12-03T07:01:50.329Z,104.30
2022-12-03T07:02:53.317Z,72.13
2022-12-03T07:03:55.020Z,100.63
2022-12-03T07:04:57.140Z,78.45
2022-12-03T07:06:01.292Z,109.20
2022-12-03T07:07:04.412Z,141.98
2022-12-03T07:08:06.256Z,100.35
2022-12-03T07:09:08.869Z,170.70
2022-12-03T07:10:11.265Z,200.18
2022-12-03T07:11:31.371Z,63.35
2022-12-03T07:12:34.645Z,65.28
2022-12-03T07:13:37.312Z,56.33
2022-12-03T07:14:40.858Z,146.85
2022-12-03T07:15:42.861Z,65.03
2022-12-03T07:16:45.229Z,95.35
2022-12-03T07:17:46.988Z,103.90
2022-12-03T07:18:50.194Z,55.70
2022-12-03T07:19:52.366Z,64.10
2022-12-03T07:20:54.534Z,80.93
2022-12-03T07:21:59.687Z,107.80
2022-12-03T07:23:02.815Z,75.15
2022-12-03T07:24:05.951Z,61.83
2022-12-03T07:25:08.525Z,54.53
2022-12-03T07:26:10.421Z,81.93
2022-12-03T07:27:12.439Z,76.13
2022-12-03T07:28:15.871Z,185.27
2022-12-03T07:29:17.917Z,300.88
2022-12-03T07:30:20.207Z,92.05
2022-12-03T07:31:22.375Z,70.10
2022-12-03T07:32:25.390Z,62.50
2022-12-03T07:33:28.448Z,55.75
2022-12-03T07:34:30.442Z,48.78
2022-12-03T07:35:32.679Z,71.22
2022-12-03T07:36:34.442Z,63.35
2022-12-03T07:37:37.814Z,68.85
2022-12-03T07:38:39.859Z,64.80
2022-12-03T07:39:43.347Z,65.55
2022-12-03T07:40:45.293Z,93.85
2022-12-03T07:41:48.434Z,108.60
2022-12-03T07:42:50.203Z,82.90
2022-12-03T07:43:51.816Z,84.95
2022-12-03T07:44:54.782Z,99.78
2022-12-03T07:45:57.599Z,152.35
2022-12-03T07:47:00.248Z,93.68
2022-12-03T07:48:02.190Z,91.93
2022-12-03T07:49:04.449Z,107.22
2022-12-03T07:50:08.207Z,95.38
2022-12-03T07:51:15.227Z,72.28
2022-12-03T07:52:18.750Z,128.82
2022-12-03T07:53:21.142Z,138.98
2022-12-03T07:54:24.836Z,112.15
2022-12-03T07:55:29.543Z,184.30
2022-12-03T07:56:32.765Z,255.65
2022-12-03T07:57:37.106Z,136.55
2022-12-03T07:58:42.181Z,135.38
2022-12-03T07:59:51.395Z,123.72
2022-12-03T08:00:53.419Z,156.05
2022-12-03T08:01:55.186Z,109.07
2022-12-03T08:02:57.290Z,140.75
2022-12-03T08:03:59.557Z,223.85
2022-12-03T08:05:01.464Z,175.60
2022-12-03T08:06:07.698Z,143.13
2022-12-03T08:07:09.382Z,100.63
2022-12-03T08:08:11.356Z,131.05
2022-12-03T08:09:16.217Z,108.97
2022-12-03T08:10:18.745Z,248.77
2022-12-03T08:11:22.179Z,402.25
2022-12-03T08:12:56.008Z,388.75
2022-12-03T08:13:59.900Z,355.05
2022-12-03T08:15:02.590Z,131.63
2022-12-03T08:16:19.893Z,130.07
2022-12-03T08:17:22.316Z,434.95
2022-12-03T08:18:24.045Z,520.03
2022-12-03T08:19:27.012Z,308.80
2022-12-03T08:20:35.003Z,268.35
2022-12-03T08:21:38.425Z,396.33
2022-12-03T08:22:43.226Z,483.38
2022-12-03T08:23:46.143Z,492.15
2022-12-03T08:24:49.000Z,347.88
2022-12-03T08:25:52.580Z,397.58
2022-12-03T08:26:57.295Z,388.30
2022-12-03T08:28:20.482Z,427.50
2022-12-03T08:29:22.411Z,196.52
2022-12-03T08:30:24.037Z,86.80
2022-12-03T08:31:33.423Z,324.60
2022-12-03T08:32:36.165Z,216.43
2022-12-03T08:33:41.567Z,147.07
2022-12-03T08:34:45.474Z,185.80
2022-12-03T08:35:51.661Z,119.07
2022-12-03T08:37:02.264Z,78.47
2022-12-03T08:38:12.861Z,74.32
2022-12-03T08:39:24.873Z,78.70
2022-12-03T08:40:39.596Z,80.13
2022-12-03T08:42:00.596Z,77.07
2022-12-03T08:43:08.201Z,81.60
2022-12-03T08:44:35.963Z,77.07
2022-12-03T08:45:41.412Z,81.78
2022-12-03T08:46:44.535Z,102.68
2022-12-03T08:47:46.764Z,99.10
2022-12-03T08:48:49.373Z,102.07
2022-12-03T08:50:21.629Z,105.07
2022-12-03T08:51:25.978Z,104.10
2022-12-03T08:52:32.689Z,85.07
2022-12-03T08:53:48.873Z,96.70
2022-12-03T08:54:57.070Z,86.65
2022-12-03T08:56:06.264Z,88.72
2022-12-03T08:57:24.027Z,89.88
2022-12-03T08:59:15.157Z,76.57
2022-12-03T09:00:24.796Z,82.00
2022-12-03T09:01:44.313Z,77.25
2022-12-03T09:02:49.727Z,89.63
2022-12-03T09:03:55.240Z,75.65
2022-12-03T09:05:11.206Z,95.70
2022-12-03T09:06:13.563Z,74.30
2022-12-03T09:07:17.751Z,121.82
2022-12-03T09:08:19.760Z,61.95
2022-12-03T09:09:24.382Z,59.70
2022-12-03T09:10:26.250Z,68.75
2022-12-03T09:11:28.377Z,61.97
2022-12-03T09:12:30.870Z,85.57
2022-12-03T09:13:32.660Z,61.83
2022-12-03T09:14:34.472Z,71.80
2022-12-03T09:15:36.703Z,104.63
2022-12-03T09:16:38.839Z,99.55
2022-12-03T09:17:40.942Z,56.20
2022-12-03T09:18:43.738Z,136.68
2022-12-03T09:19:48.421Z,120.57
2022-12-03T09:20:50.193Z,93.78
2022-12-03T09:21:55.590Z,65.32
2022-12-03T09:22:57.408Z,129.00
2022-12-03T09:24:01.057Z,144.60
2022-12-03T09:25:06.277Z,129.80
2022-12-03T09:26:08.931Z,63.90
2022-12-03T09:27:11.073Z,82.22
2022-12-03T09:28:12.759Z,47.95
2022-12-03T09:29:15.368Z,88.55
2022-12-03T09:30:17.892Z,76.97
2022-12-03T09:31:21.063Z,55.78
2022-12-03T09:32:24.559Z,59.25
2022-12-03T09:33:26.480Z,61.17
2022-12-03T09:34:28.828Z,84.20
2022-12-03T09:35:31.024Z,84.40
2022-12-03T09:36:36.849Z,92.88
2022-12-03T09:37:39.303Z,89.60
2022-12-03T09:38:46.231Z,78.85
2022-12-03T09:39:50.515Z,42.75
2022-12-03T09:40:55.488Z,52.72
2022-12-03T09:41:58.695Z,38.00
2022-12-03T09:43:01.303Z,52.30
2022-12-03T09:44:04.938Z,65.88
2022-12-03T09:45:15.608Z,71.72
2022-12-03T09:46:18.908Z,35.78
2022-12-03T09:47:22.804Z,44.88
2022-12-03T09:48:26.488Z,69.75
2022-12-03T09:49:30.818Z,93.25
2022-12-03T09:50:32.866Z,72.28
2022-12-03T09:51:36.323Z,273.95
2022-12-03T09:52:39.946Z,88.22
2022-12-03T09:53:42.233Z,60.97
2022-12-03T09:54:47.554Z,68.70
2022-12-03T09:55:51.268Z,63.45
2022-12-03T09:56:56.797Z,150.48
2022-12-03T09:58:59.199Z,139.20
2022-12-03T10:00:19.360Z,691.08
2022-12-03T10:01:29.233Z,120.32
2022-12-03T10:02:35.173Z,57.35
2022-12-03T10:03:42.107Z,55.10
2022-12-03T10:04:44.065Z,52.40
2022-12-03T10:05:48.352Z,48.63
2022-12-03T10:06:52.484Z,40.88
2022-12-03T10:08:01.951Z,81.07
2022-12-03T10:09:06.937Z,52.38
2022-12-03T10:10:23.399Z,39.30
2022-12-03T10:11:26.301Z,31.27
2022-12-03T10:12:29.408Z,32.75
2022-12-03T10:13:33.093Z,30.90
2022-12-03T10:14:35.828Z,25.80
2022-12-03T10:15:38.076Z,23.75
2022-12-03T10:16:41.825Z,23.95
2022-12-03T10:17:46.554Z,23.55
2022-12-03T10:18:51.421Z,23.33
2022-12-03T10:19:54.443Z,21.30
2022-12-03T10:20:59.342Z,18.23
2022-12-03T10:22:03.000Z,18.17
2022-12-03T10:23:06.287Z,25.43
2022-12-03T10:24:31.602Z,23.30
2022-12-03T10:25:49.462Z,20.27
2022-12-03T10:26:55.495Z,17.87
2022-12-03T10:28:00.913Z,21.90
2022-12-03T10:29:15.514Z,19.53
2022-12-03T10:30:20.339Z,17.33
2022-12-03T10:31:35.805Z,19.37
2022-12-03T10:32:45.127Z,19.27
2022-12-03T10:33:48.648Z,17.67
2022-12-03T10:34:51.152Z,16.33
2022-12-03T10:35:56.942Z,15.80
2022-12-03T10:37:14.165Z,16.00
2022-12-03T10:38:18.554Z,18.40
2022-12-03T10:39:20.399Z,16.37
2022-12-03T10:40:28.449Z,17.97
2022-12-03T10:41:30.914Z,16.43
2022-12-03T10:42:35.654Z,16.87
2022-12-03T10:43:38.489Z,17.90
2022-12-03T10:44:40.505Z,19.60
2022-12-03T10:45:44.007Z,18.53
2022-12-03T10:47:06.674Z,18.23
2022-12-03T10:48:11.330Z,18.27
2022-12-03T10:49:20.198Z,17.63
2022-12-03T10:50:24.909Z,20.83
2022-12-03T10:51:29.559Z,19.07
2022-12-03T10:52:33.499Z,17.27
2022-12-03T10:53:38.098Z,18.90
2022-12-03T10:54:42.161Z,26.47
2022-12-03T10:55:46.434Z,21.80
2022-12-03T10:56:52.525Z,19.37
2022-12-03T10:57:55.895Z,17.83
2022-12-03T10:58:58.619Z,19.60
2022-12-03T11:00:05.465Z,20.73
2022-12-03T11:01:23.003Z,18.50
2022-12-03T11:02:26.854Z,17.30
2022-12-03T11:03:34.992Z,17.10
2022-12-03T11:04:38.731Z,18.87
2022-12-03T11:05:41.184Z,21.20
2022-12-03T11:06:43.333Z,21.73
2022-12-03T11:07:45.791Z,20.70
2022-12-03T11:08:57.590Z,20.60
2022-12-03T11:10:03.368Z,28.40
2022-12-03T11:11:20.730Z,27.40
2022-12-03T11:12:35.872Z,20.60
2022-12-03T11:13:37.700Z,18.40
2022-12-03T11:14:58.510Z,15.43
2022-12-03T11:16:13.768Z,19.50
2022-12-03T11:17:44.504Z,21.90
2022-12-03T11:19:12.099Z,24.30
2022-12-03T11:20:23.304Z,15.83
2022-12-03T11:21:37.731Z,15.93
2022-12-03T11:22:50.764Z,18.07
2022-12-03T11:23:53.963Z,16.60
2022-12-03T11:25:27.165Z,21.77
2022-12-03T11:26:44.321Z,18.90
2022-12-03T11:30:00.335Z,15.60
2022-12-03T11:31:12.787Z,17.10
2022-12-03T11:32:40.982Z,17.57
2022-12-03T11:33:53.870Z,20.03
2022-12-03T11:34:57.555Z,23.60
2022-12-03T11:36:05.590Z,18.00
2022-12-03T11:37:13.893Z,16.50
2022-12-03T11:38:53.666Z,17.60
2022-12-03T11:40:19.114Z,14.87
2022-12-03T11:41:30.083Z,15.37
2022-12-03T11:42:41.985Z,16.80
2022-12-03T11:43:54.351Z,16.90
2022-12-03T11:45:05.884Z,15.77
2022-12-03T11:46:11.001Z,15.93
2022-12-03T11:47:16.370Z,16.63
2022-12-03T11:48:20.911Z,16.50
2022-12-03T11:49:41.981Z,17.17
2022-12-03T11:50:54.282Z,16.60
2022-12-03T11:51:58.862Z,15.43
2022-12-03T11:53:08.775Z,17.20
2022-12-03T11:54:17.859Z,15.47
2022-12-03T11:55:33.904Z,15.80
2022-12-03T11:56:44.265Z,15.43
2022-12-03T11:57:51.863Z,22.63
2022-12-03T11:59:04.893Z,24.03
2022-12-03T12:00:23.643Z,13.67
2022-12-03T12:01:42.560Z,15.30
2022-12-03T12:02:45.282Z,13.23
2022-12-03T12:03:51.201Z,12.30
2022-12-03T12:04:57.679Z,12.33
2022-12-03T12:06:16.627Z,16.23
2022-12-03T12:07:39.597Z,12.67
2022-12-03T12:08:57.194Z,14.43
2022-12-03T12:09:59.259Z,12.57
2022-12-03T12:11:04.133Z,13.30
2022-12-03T12:12:37.263Z,14.43
2022-12-03T12:13:43.192Z,13.37
2022-12-03T12:14:45.265Z,14.43
2022-12-03T12:15:47.326Z,14.57
2022-12-03T12:18:38.274Z,14.60
2022-12-03T12:19:45.099Z,16.27
2022-12-03T12:20:48.506Z,16.20
2022-12-03T12:21:51.139Z,18.27
2022-12-03T12:22:56.254Z,17.37
2022-12-03T12:24:19.780Z,21.10
2022-12-03T12:25:30.753Z,27.30
2022-12-03T12:26:33.973Z,22.70
2022-12-03T12:27:35.780Z,21.40
2022-12-03T12:28:38.934Z,20.50
2022-12-03T12:29:43.793Z,21.70
2022-12-03T12:30:45.781Z,20.23
2022-12-03T12:31:54.042Z,18.97
2022-12-03T12:33:10.679Z,20.23
2022-12-03T12:34:20.752Z,19.97
2022-12-03T12:35:37.633Z,18.63
2022-12-03T12:36:41.712Z,20.17
2022-12-03T12:38:00.484Z,20.33
2022-12-03T12:39:11.696Z,20.30
2022-12-03T12:40:16.716Z,18.10
2022-12-03T12:41:20.739Z,18.98
2022-12-03T12:42:38.996Z,17.17
2022-12-03T12:43:41.202Z,16.90
2022-12-03T12:44:43.338Z,16.33
2022-12-03T12:45:46.219Z,16.65
2022-12-03T12:46:48.722Z,19.10
2022-12-03T12:48:01.046Z,18.75
2022-12-03T12:49:11.424Z,17.07
2022-12-03T12:50:15.390Z,19.60
2022-12-03T12:51:22.196Z,20.08
2022-12-03T12:52:25.900Z,20.08
2022-12-03T12:53:31.353Z,22.33
2022-12-03T12:54:33.243Z,26.10
2022-12-03T12:55:38.504Z,19.83
2022-12-03T12:56:44.992Z,19.50
2022-12-03T12:57:49.141Z,21.55
2022-12-03T12:58:53.109Z,18.52
2022-12-03T12:59:55.062Z,19.83
2022-12-03T13:01:01.248Z,19.50
2022-12-03T13:02:19.906Z,20.70
2022-12-03T13:03:26.888Z,24.13
2022-12-03T13:04:30.844Z,21.55
2022-12-03T13:05:44.622Z,22.05
2022-12-03T13:06:52.259Z,32.40
2022-12-03T13:07:58.058Z,29.50
2022-12-03T13:09:01.848Z,31.67
2022-12-03T13:10:37.508Z,31.52
2022-12-03T13:11:46.219Z,30.48
2022-12-03T13:12:48.319Z,26.63
2022-12-03T13:13:57.881Z,28.20
2022-12-03T13:15:01.235Z,19.85
2022-12-03T13:16:18.298Z,23.42
2022-12-03T13:17:25.040Z,23.20
2022-12-03T13:18:51.764Z,29.58
2022-12-03T13:20:05.200Z,27.63
2022-12-03T13:21:38.408Z,26.50
2022-12-03T13:22:46.267Z,27.33
2022-12-03T13:24:00.814Z,27.20
2022-12-03T13:27:21.727Z,25.15
2022-12-03T13:28:24.682Z,32.55
2022-12-03T13:29:28.224Z,34.92
2022-12-03T13:30:34.589Z,32.75
2022-12-03T13:31:43.738Z,27.35
2022-12-03T13:32:47.943Z,27.10
2022-12-03T13:33:53.343Z,27.90
2022-12-03T13:35:05.476Z,24.98
2022-12-03T13:36:13.838Z,28.35
2022-12-03T13:37:28.651Z,23.90
2022-12-03T13:38:30.465Z,27.23
2022-12-03T13:39:36.734Z,23.08
2022-12-03T13:40:38.485Z,27.77
2022-12-03T13:42:00.562Z,25.63
2022-12-03T13:43:13.269Z,29.77
2022-12-03T13:44:21.853Z,28.17
2022-12-03T13:45:26.985Z,27.70
2022-12-03T13:46:35.290Z,26.33
2022-12-03T13:47:37.722Z,24.15
2022-12-03T13:48:43.959Z,26.05
2022-12-03T13:49:51.776Z,23.00
2022-12-03T13:50:54.479Z,20.65
2022-12-03T13:51:59.648Z,27.40
2022-12-03T13:53:29.878Z,25.40
2022-12-03T13:54:39.545Z,24.50
2022-12-03T13:55:49.099Z,25.38
2022-12-03T13:56:50.895Z,26.48
2022-12-03T13:57:53.440Z,31.55
2022-12-03T13:58:58.159Z,27.90
2022-12-03T14:00:00.886Z,26.42
2022-12-03T14:01:03.631Z,27.08
2022-12-03T14:02:08.894Z,26.40
2022-12-03T14:03:12.103Z,26.40
2022-12-03T14:04:15.306Z,24.90
2022-12-03T14:05:17.167Z,28.33